Time;durP1;ratioP1;P1;durP2;ratioP2;P2;SDS_P1;SDS_P2;PMS_P1;PMS_P2;Temp;Humidity;BMP_temperature;BMP_pressure;BME280_temperature;BME280_humidity;BME280_pressure;Samples;Min_cycle;Max_cycle;Signal;HPM_P1;HPM_P2
2023/09/30 00:00:42;;;;;;;;;;;;;;;17.14;100.00;100240.50;4913396;29;19966;-80
2023/09/30 00:03:07;;;;;;;;;;;;;;;17.16;100.00;100252.66;4897133;29;19967;-79
2023/09/30 00:05:33;;;;;;;;;;;;;;;17.13;100.00;100249.50;4893906;29;19931;-80
2023/09/30 00:07:58;;;;;;;;;;;;;;;17.08;100.00;100254.50;4914604;29;19931;-79
2023/09/30 00:10:24;;;;;;;;;;;;;;;17.02;100.00;100263.97;4915402;29;19967;-80
2023/09/30 00:12:49;;;;;;;;;;;;;;;17.03;100.00;100260.31;4912508;29;19934;-79
2023/09/30 00:15:14;;;;;;;;;;;;;;;17.02;100.00;100268.50;4916719;29;19923;-79
2023/09/30 00:17:40;;;;;;;;;;;;;;;16.93;100.00;100264.97;4914733;29;20022;-80
2023/09/30 00:20:06;;;;;;;;;;;;;;;16.95;100.00;100263.00;4916505;29;19927;-80
2023/09/30 00:22:31;;;;;;;;;;;;;;;16.95;100.00;100267.50;4916699;29;20010;-80
2023/09/30 00:24:56;;;;;;;;;;;;;;;16.97;100.00;100270.81;4915984;29;19947;-79
2023/09/30 00:27:22;;;;;;;;;;;;;;;16.90;100.00;100276.00;4912168;29;20002;-79
2023/09/30 00:29:47;;;;;;;;;;;;;;;16.74;100.00;100279.47;4916159;29;19979;-79
2023/09/30 00:32:13;;;;;;;;;;;;;;;16.53;100.00;100278.22;4913872;29;19923;-79
2023/09/30 00:34:40;;;;;;;;;;;;;;;16.48;100.00;100270.75;4916436;29;19933;-80
2023/09/30 00:37:05;;;;;;;;;;;;;;;16.48;100.00;100270.75;4913735;29;20325;-80
2023/09/30 00:39:32;;;;;;;;;;;;;;;16.53;100.00;100279.06;4912822;29;19979;-79
2023/09/30 00:42:00;;;;;;;;;;;;;;;16.56;100.00;100272.56;4913246;29;20301;-79
2023/09/30 00:44:27;;;;;;;;;;;;;;;16.54;100.00;100269.25;4914263;29;19923;-79
2023/09/30 00:46:54;;;;;;;;;;;;;;;16.44;100.00;100269.38;4915849;29;20376;-79
2023/09/30 00:49:21;;;;;;;;;;;;;;;16.39;100.00;100277.03;4913107;29;20002;-77
2023/09/30 00:51:47;;;;;;;;;;;;;;;16.43;100.00;100267.72;4915936;29;20236;-79
2023/09/30 00:54:12;;;;;;;;;;;;;;;16.38;100.00;100273.53;4912434;29;20014;-79
2023/09/30 00:56:43;;;;;;;;;;;;;;;16.36;100.00;100272.03;4914122;29;19935;-78
2023/09/30 00:59:08;;;;;;;;;;;;;;;16.23;100.00;100271.66;4912842;29;19931;-79
2023/09/30 01:01:34;;;;;;;;;;;;;;;16.13;100.00;100265.63;4896144;29;19934;-77
2023/09/30 01:04:00;;;;;;;;;;;;;;;16.23;100.00;100266.34;4911971;29;19927;-78
2023/09/30 01:06:26;;;;;;;;;;;;;;;16.27;100.00;100267.66;4910678;29;19924;-78
2023/09/30 01:08:52;;;;;;;;;;;;;;;16.25;100.00;100275.00;4913263;29;20018;-78
2023/09/30 01:11:18;;;;;;;;;;;;;;;16.18;100.00;100268.66;4914163;29;20691;-79
2023/09/30 01:13:44;;;;;;;;;;;;;;;16.17;100.00;100261.66;4911648;29;20062;-79
2023/09/30 01:16:11;;;;;;;;;;;;;;;16.11;100.00;100267.63;4896339;29;19923;-78
2023/09/30 01:18:37;;;;;;;;;;;;;;;16.17;100.00;100266.97;4915503;29;19923;-78
2023/09/30 01:21:03;;;;;;;;;;;;;;;16.09;100.00;100269.59;4912363;29;20448;-78
2023/09/30 01:23:29;;;;;;;;;;;;;;;16.17;100.00;100262.50;4914563;29;20272;-78
2023/09/30 01:25:55;;;;;;;;;;;;;;;16.27;100.00;100265.84;4914934;29;19997;-78
2023/09/30 01:28:20;;;;;;;;;;;;;;;16.33;100.00;100251.03;4915314;29;19938;-78
2023/09/30 01:30:46;;;;;;;;;;;;;;;16.31;100.00;100258.38;4896785;29;20023;-78
2023/09/30 01:33:11;;;;;;;;;;;;;;;16.29;100.00;100250.53;4915436;29;19923;-78
2023/09/30 01:35:36;;;;;;;;;;;;;;;16.28;100.00;100253.38;4913178;29;19924;-77
2023/09/30 01:38:04;;;;;;;;;;;;;;;16.26;100.00;100255.34;4896741;29;19931;-78
2023/09/30 01:40:29;;;;;;;;;;;;;;;16.29;100.00;100255.88;4914961;29;20700;-78
2023/09/30 01:42:56;;;;;;;;;;;;;;;16.23;100.00;100247.69;4892804;29;19977;-78
2023/09/30 01:45:21;;;;;;;;;;;;;;;16.18;100.00;100248.19;4914999;29;19979;-79
2023/09/30 01:47:47;;;;;;;;;;;;;;;16.17;100.00;100243.00;4914871;29;19958;-79
2023/09/30 01:50:12;;;;;;;;;;;;;;;16.05;100.00;100236.31;4913062;29;19923;-79
2023/09/30 01:52:38;;;;;;;;;;;;;;;16.04;100.00;100237.31;4915229;29;19931;-78
2023/09/30 01:55:03;;;;;;;;;;;;;;;16.03;100.00;100227.66;4912145;29;19971;-78
2023/09/30 01:57:29;;;;;;;;;;;;;;;16.06;100.00;100230.84;4914441;29;19958;-78
2023/09/30 01:59:54;;;;;;;;;;;;;;;15.97;100.00;100229.97;4892825;29;19983;-78
2023/09/30 02:02:20;;;;;;;;;;;;;;;15.88;100.00;100230.94;4897625;29;19974;-78
2023/09/30 02:04:46;;;;;;;;;;;;;;;15.87;100.00;100233.75;4911135;29;20412;-79
2023/09/30 02:07:12;;;;;;;;;;;;;;;15.82;100.00;100236.91;4914830;29;19951;-78
2023/09/30 02:09:37;;;;;;;;;;;;;;;15.82;100.00;100236.91;4895523;29;19923;-79
2023/09/30 02:12:03;;;;;;;;;;;;;;;15.81;100.00;100227.25;4913351;29;20711;-79
2023/09/30 02:14:28;;;;;;;;;;;;;;;15.79;100.00;100231.88;4914490;29;19930;-78
2023/09/30 02:16:53;;;;;;;;;;;;;;;15.79;100.00;100226.56;4914107;29;19923;-78
2023/09/30 02:19:19;;;;;;;;;;;;;;;15.81;100.00;100229.91;4909156;29;19931;-79
2023/09/30 02:21:45;;;;;;;;;;;;;;;15.83;100.00;100230.59;4897349;29;19924;-79
2023/09/30 02:24:10;;;;;;;;;;;;;;;15.83;100.00;100238.56;4910490;29;19931;-79
2023/09/30 02:26:35;;;;;;;;;;;;;;;15.77;100.00;100231.22;4914646;29;19930;-79
2023/09/30 02:29:01;;;;;;;;;;;;;;;15.73;100.00;100231.69;4895134;29;20420;-79
2023/09/30 02:31:27;;;;;;;;;;;;;;;15.68;100.00;100234.00;4913421;29;19919;-79
2023/09/30 02:33:52;;;;;;;;;;;;;;;15.69;100.00;100233.84;4914055;29;19930;-77
2023/09/30 02:36:18;;;;;;;;;;;;;;;15.72;100.00;100235.38;4914850;29;19919;-79
2023/09/30 02:38:43;;;;;;;;;;;;;;;15.78;100.00;100238.22;4911525;29;19971;-80
2023/09/30 02:41:09;;;;;;;;;;;;;;;15.71;100.00;100237.19;4912111;29;20029;-80
2023/09/30 02:43:34;;;;;;;;;;;;;;;15.73;100.00;100242.31;4912653;29;19923;-79
2023/09/30 02:46:00;;;;;;;;;;;;;;;15.70;100.00;100240.84;4910965;29;19923;-79
2023/09/30 02:48:25;;;;;;;;;;;;;;;15.72;100.00;100252.16;4913173;29;19968;-79
2023/09/30 02:50:52;;;;;;;;;;;;;;;15.75;100.00;100254.50;4914358;29;19980;-77
2023/09/30 02:53:17;;;;;;;;;;;;;;;15.71;100.00;100261.13;4914481;29;19927;-79
2023/09/30 02:55:42;;;;;;;;;;;;;;;15.73;100.00;100256.47;4912179;29;19923;-80
2023/09/30 02:58:10;;;;;;;;;;;;;;;15.70;100.00;100259.47;4912806;29;20010;-79
2023/09/30 03:00:37;;;;;;;;;;;;;;;15.79;100.00;100253.16;4882254;29;19963;-80
2023/09/30 03:03:03;;;;;;;;;;;;;;;15.83;100.00;100249.22;4895328;29;20618;-80
2023/09/30 03:05:32;;;;;;;;;;;;;;;15.85;100.00;100257.03;4914337;29;19927;-80
2023/09/30 03:07:57;;;;;;;;;;;;;;;15.86;100.00;100254.22;4912739;29;20334;-80
2023/09/30 03:10:26;;;;;;;;;;;;;;;15.83;100.00;100257.19;4918451;29;19923;-79
2023/09/30 03:12:52;;;;;;;;;;;;;;;15.83;100.00;100249.22;4917571;29;19923;-78
2023/09/30 03:15:18;;;;;;;;;;;;;;;15.83;100.00;100249.22;4915292;29;20023;-80
2023/09/30 03:17:44;;;;;;;;;;;;;;;15.87;100.00;100239.91;4916025;29;20029;-80
2023/09/30 03:20:14;;;;;;;;;;;;;;;15.86;100.00;100243.56;4912835;29;19983;-79
2023/09/30 03:22:40;;;;;;;;;;;;;;;15.80;100.00;100241.53;4916678;29;19927;-78
2023/09/30 03:25:06;;;;;;;;;;;;;;;15.86;100.00;100242.72;4916754;29;20005;-78
2023/09/30 03:27:34;;;;;;;;;;;;;;;15.89;100.00;100248.59;4916433;29;21630;-79
2023/09/30 03:30:01;;;;;;;;;;;;;;;15.91;100.00;100246.56;4917613;29;19938;-80
2023/09/30 03:32:26;;;;;;;;;;;;;;;15.91;100.00;100245.75;4915883;29;19923;-78
2023/09/30 03:34:52;;;;;;;;;;;;;;;15.92;100.00;100245.59;4913193;29;20364;-79
2023/09/30 03:37:17;;;;;;;;;;;;;;;15.91;100.00;100243.91;4914722;29;19923;-81
2023/09/30 03:39:43;;;;;;;;;;;;;;;15.88;100.00;100238.94;4912462;29;19927;-80
2023/09/30 03:42:11;;;;;;;;;;;;;;;15.84;100.00;100240.25;4911487;29;20388;-79
2023/09/30 03:44:37;;;;;;;;;;;;;;;15.83;100.00;100246.56;4915718;29;19929;-80
2023/09/30 03:47:03;;;;;;;;;;;;;;;15.79;100.00;100237.19;4914810;29;19927;-80
2023/09/30 03:49:28;;;;;;;;;;;;;;;15.74;100.00;100234.19;4912401;29;19933;-80
2023/09/30 03:51:54;;;;;;;;;;;;;;;15.68;100.00;100229.50;4914827;29;20014;-79
2023/09/30 03:54:19;;;;;;;;;;;;;;;15.56;100.00;100233.44;4899316;29;19980;-80
2023/09/30 03:56:46;;;;;;;;;;;;;;;15.54;100.00;100244.25;4916362;29;19923;-80
2023/09/30 03:59:11;;;;;;;;;;;;;;;15.50;100.00;100247.34;4912550;29;19942;-80
2023/09/30 04:01:40;;;;;;;;;;;;;;;15.51;100.00;100243.69;4916268;29;19923;-78
2023/09/30 04:04:07;;;;;;;;;;;;;;;15.46;100.00;100240.66;4914837;29;19926;-78
2023/09/30 04:06:32;;;;;;;;;;;;;;;15.51;100.00;100238.38;4916372;29;19971;-78
2023/09/30 04:08:59;;;;;;;;;;;;;;;15.49;100.00;100235.84;4916008;29;19923;-78
2023/09/30 04:11:25;;;;;;;;;;;;;;;15.50;100.00;100236.69;4916148;29;19919;-78
2023/09/30 04:13:50;;;;;;;;;;;;;;;15.42;100.00;100239.31;4915799;29;19934;-78
2023/09/30 04:16:18;;;;;;;;;;;;;;;15.29;100.00;100250.38;4911769;29;19919;-80
2023/09/30 04:18:44;;;;;;;;;;;;;;;15.21;100.00;100244.16;4912428;29;19930;-80
2023/09/30 04:21:09;;;;;;;;;;;;;;;15.15;100.00;100249.09;4914906;29;19927;-80
2023/09/30 04:23:38;;;;;;;;;;;;;;;15.12;100.00;100233.47;4916311;29;19927;-80
2023/09/30 04:26:04;;;;;;;;;;;;;;;15.08;100.00;100232.09;4915641;29;19923;-80
2023/09/30 04:28:30;;;;;;;;;;;;;;;15.05;100.00;100232.44;4892635;29;20130;-76
2023/09/30 04:30:56;;;;;;;;;;;;;;;15.04;100.00;100236.06;4915365;29;20061;-77
2023/09/30 04:33:24;;;;;;;;;;;;;;;15.03;100.00;100238.88;4915782;29;19923;-76
2023/09/30 04:35:49;;;;;;;;;;;;;;;15.06;100.00;100244.72;4906606;29;19928;-78
2023/09/30 04:38:15;;;;;;;;;;;;;;;15.04;100.00;100252.00;4914958;29;20002;-78
2023/09/30 04:40:44;;;;;;;;;;;;;;;15.02;100.00;100242.53;4911672;29;19923;-78
2023/09/30 04:43:09;;;;;;;;;;;;;;;14.97;100.00;100244.81;4915279;29;19988;-79
2023/09/30 04:45:35;;;;;;;;;;;;;;;14.92;100.00;100247.09;4915900;29;19923;-78
2023/09/30 04:48:02;;;;;;;;;;;;;;;14.97;100.00;100250.13;4915381;29;19919;-79
2023/09/30 04:50:27;;;;;;;;;;;;;;;14.96;100.00;100254.59;4913168;29;19930;-80
2023/09/30 04:52:53;;;;;;;;;;;;;;;14.96;100.00;100241.31;4915470;29;19927;-80
2023/09/30 04:55:19;;;;;;;;;;;;;;;14.92;100.00;100242.63;4916048;29;19962;-80
2023/09/30 04:57:45;;;;;;;;;;;;;;;14.88;100.00;100246.56;4913725;29;19923;-80
2023/09/30 05:00:15;;;;;;;;;;;;;;;14.91;100.00;100240.09;4910758;29;19923;-79
2023/09/30 05:02:40;;;;;;;;;;;;;;;14.83;100.00;100254.19;4913228;29;19930;-79
2023/09/30 05:05:06;;;;;;;;;;;;;;;14.85;100.00;100244.22;4913917;29;19927;-79
2023/09/30 05:07:32;;;;;;;;;;;;;;;14.75;100.00;100235.50;4914736;29;20065;-80
2023/09/30 05:09:57;;;;;;;;;;;;;;;14.84;100.00;100239.91;4914742;29;19946;-80
2023/09/30 05:12:23;;;;;;;;;;;;;;;14.88;100.00;100243.91;4913160;29;20010;-79
2023/09/30 05:14:48;;;;;;;;;;;;;;;14.94;100.00;100243.31;4912812;29;19967;-80
2023/09/30 05:17:14;;;;;;;;;;;;;;;14.98;100.00;100239.34;4915088;29;19923;-80
2023/09/30 05:19:39;;;;;;;;;;;;;;;14.99;100.00;100242.84;4914771;29;19954;-79
2023/09/30 05:22:05;;;;;;;;;;;;;;;14.91;100.00;100251.56;4912309;29;19930;-80
2023/09/30 05:24:30;;;;;;;;;;;;;;;14.61;100.00;100259.94;4911204;29;19924;-79
2023/09/30 05:26:56;;;;;;;;;;;;;;;14.55;100.00;100255.25;4914258;29;19927;-79
2023/09/30 05:29:22;;;;;;;;;;;;;;;14.54;100.00;100258.88;4911251;29;19951;-79
2023/09/30 05:31:47;;;;;;;;;;;;;;;14.58;100.00;100255.78;4911537;29;19930;-80
2023/09/30 05:34:13;;;;;;;;;;;;;;;14.63;100.00;100252.66;4911446;29;20014;-79
2023/09/30 05:36:39;;;;;;;;;;;;;;;14.67;100.00;100254.00;4913917;29;19931;-79
2023/09/30 05:39:04;;;;;;;;;;;;;;;14.69;100.00;100262.66;4914140;29;19927;-79
2023/09/30 05:41:30;;;;;;;;;;;;;;;14.68;100.00;100255.69;4909687;29;19970;-80
2023/09/30 05:43:56;;;;;;;;;;;;;;;14.66;100.00;100255.03;4912170;29;19923;-80
2023/09/30 05:46:21;;;;;;;;;;;;;;;14.68;100.00;100264.50;4914232;29;19927;-80
2023/09/30 05:48:47;;;;;;;;;;;;;;;14.61;100.00;100267.91;4908953;29;19923;-81
2023/09/30 05:51:15;;;;;;;;;;;;;;;14.68;100.00;100271.63;4908110;29;20334;-78
2023/09/30 05:53:43;;;;;;;;;;;;;;;14.72;100.00;100268.53;4910395;29;19927;-77
2023/09/30 05:56:11;;;;;;;;;;;;;;;14.75;100.00;100268.22;4910247;29;20642;-77
2023/09/30 05:58:37;;;;;;;;;;;;;;;14.86;100.00;100263.66;4910760;29;20403;-78
2023/09/30 06:01:07;;;;;;;;;;;;;;;14.90;100.00;100271.19;4911245;29;19923;-77
2023/09/30 06:03:39;;;;;;;;;;;;;;;14.93;100.00;100273.53;4909901;29;19982;-77
2023/09/30 06:06:09;;;;;;;;;;;;;;;15.02;100.00;100279.75;4908162;29;20358;-77
2023/09/30 06:08:35;;;;;;;;;;;;;;;15.02;100.00;100280.56;4909243;29;19934;-77
2023/09/30 06:11:00;;;;;;;;;;;;;;;15.10;100.00;100270.00;4892052;29;19919;-78
2023/09/30 06:13:28;;;;;;;;;;;;;;;15.19;100.00;100254.13;4905740;29;19931;-76
2023/09/30 06:15:54;;;;;;;;;;;;;;;15.27;100.00;100243.53;4910109;29;20480;-76
2023/09/30 06:18:19;;;;;;;;;;;;;;;15.34;100.00;100247.25;4913342;29;20292;-75
2023/09/30 06:20:45;;;;;;;;;;;;;;;15.39;100.00;100250.25;4910461;29;20100;-77
2023/09/30 06:23:10;;;;;;;;;;;;;;;15.43;100.00;100268.41;4911161;29;19923;-76
2023/09/30 06:25:35;;;;;;;;;;;;;;;15.52;100.00;100277.31;4914414;29;19923;-77
2023/09/30 06:28:01;;;;;;;;;;;;;;;15.57;100.00;100286.50;4891071;29;19938;-78
2023/09/30 06:30:29;;;;;;;;;;;;;;;15.61;100.00;100281.69;4912975;29;19970;-78
2023/09/30 06:32:59;;;;;;;;;;;;;;;15.61;100.00;100276.34;4914130;29;20380;-76
2023/09/30 06:35:26;;;;;;;;;;;;;;;15.68;100.00;100277.41;4894417;29;19931;-76
2023/09/30 06:37:57;;;;;;;;;;;;;;;15.71;100.00;100282.41;4915829;29;20029;-76
2023/09/30 06:40:23;;;;;;;;;;;;;;;15.70;100.00;100288.72;4553225;29;9999865;-75
2023/09/30 06:42:49;;;;;;;;;;;;;;;15.69;100.00;100287.06;4892413;29;19981;-76
2023/09/30 06:45:15;;;;;;;;;;;;;;;15.69;100.00;100295.03;4904660;29;19924;-74
2023/09/30 06:47:41;;;;;;;;;;;;;;;15.71;100.00;100303.72;4911724;29;19936;-77
2023/09/30 06:50:12;;;;;;;;;;;;;;;15.65;100.00;100309.66;4915027;29;19927;-76
2023/09/30 06:52:41;;;;;;;;;;;;;;;15.78;100.00;100304.75;4914041;29;20241;-74
2023/09/30 06:55:07;;;;;;;;;;;;;;;15.88;100.00;100300.13;4915780;29;19926;-75
2023/09/30 06:57:33;;;;;;;;;;;;;;;15.96;100.00;100302.00;4912475;29;20303;-75
2023/09/30 06:59:59;;;;;;;;;;;;;;;16.08;100.00;100305.22;4908854;29;19934;-76
2023/09/30 07:02:24;;;;;;;;;;;;;;;16.17;100.00;100305.09;4916681;29;19927;-75
2023/09/30 07:04:50;;;;;;;;;;;;;;;16.22;100.00;100315.25;4910924;29;19947;-75
2023/09/30 07:07:15;;;;;;;;;;;;;;;16.28;100.00;100311.94;4913715;29;19923;-76
2023/09/30 07:09:42;;;;;;;;;;;;;;;16.31;100.00;100316.97;4915164;29;19927;-75
2023/09/30 07:12:08;;;;;;;;;;;;;;;16.36;100.00;100317.31;4915784;29;19927;-76
2023/09/30 07:14:33;;;;;;;;;;;;;;;16.45;100.00;100313.66;4913898;29;19934;-77
2023/09/30 07:16:59;;;;;;;;;;;;;;;16.54;100.00;100318.03;4234104;29;10000671;-76
2023/09/30 07:19:24;;;;;;;;;;;;;;;16.61;100.00;100321.72;4917401;29;19923;-76
2023/09/30 07:21:49;;;;;;;;;;;;;;;16.65;100.00;100323.09;4918277;29;20593;-75
2023/09/30 07:24:15;;;;;;;;;;;;;;;16.71;100.00;100317.13;4918603;29;19944;-80
2023/09/30 07:26:40;;;;;;;;;;;;;;;16.79;100.00;100322.44;4902803;29;19930;-79
2023/09/30 07:29:06;;;;;;;;;;;;;;;16.85;100.00;100333.47;4919119;29;19931;-83
2023/09/30 07:31:37;;;;;;;;;;;;;;;16.96;100.00;100333.16;4917543;29;19973;-81
2023/09/30 07:34:03;;;;;;;;;;;;;;;17.02;100.00;100327.16;4917012;29;20003;-80
2023/09/30 07:36:28;;;;;;;;;;;;;;;17.10;100.00;100329.81;4919640;29;19919;-80
2023/09/30 07:38:54;;;;;;;;;;;;;;;17.17;100.00;100331.66;4919787;29;19923;-81
2023/09/30 07:41:19;;;;;;;;;;;;;;;17.22;100.00;100344.50;4919529;29;19935;-82
2023/09/30 07:43:45;;;;;;;;;;;;;;;17.27;100.00;100347.47;4901924;29;20332;-81
2023/09/30 07:46:10;;;;;;;;;;;;;;;17.33;100.00;100352.16;4919076;29;19923;-81
2023/09/30 07:48:36;;;;;;;;;;;;;;;17.39;100.00;100356.81;4919851;29;19954;-82
2023/09/30 07:51:02;;;;;;;;;;;;;;;17.36;100.00;100351.84;4915044;29;20007;-76
2023/09/30 07:53:27;;;;;;;;;;;;;;;17.45;100.00;100348.16;4913895;29;19923;-77
2023/09/30 07:55:54;;;;;;;;;;;;;;;17.56;100.00;100347.81;4916968;29;19935;-79
2023/09/30 07:58:19;;;;;;;;;;;;;;;17.65;100.00;100347.84;4920471;29;20304;-79
2023/09/30 08:00:45;;;;;;;;;;;;;;;17.72;100.00;100346.16;4914686;29;19930;-85
2023/09/30 08:03:11;;;;;;;;;;;;;;;17.79;100.00;100357.84;4919188;29;19973;-85
2023/09/30 08:05:37;;;;;;;;;;;;;;;17.91;100.00;100359.13;4921210;29;19931;-88
2023/09/30 08:08:03;;;;;;;;;;;;;;;17.97;100.00;100358.44;4915180;29;19930;-80
2023/09/30 08:10:29;;;;;;;;;;;;;;;18.02;100.00;100358.78;4913830;29;20297;-83
2023/09/30 08:12:57;;;;;;;;;;;;;;;18.11;100.00;100363.09;4915110;29;20300;-81
2023/09/30 08:15:23;;;;;;;;;;;;;;;18.20;100.00;100354.03;4910184;29;19941;-83
2023/09/30 08:17:48;;;;;;;;;;;;;;;18.26;100.00;100349.84;4916279;29;19923;-81
2023/09/30 08:20:14;;;;;;;;;;;;;;;18.30;100.00;100346.66;4893280;29;19930;-81
2023/09/30 08:22:40;;;;;;;;;;;;;;;18.34;100.00;100355.16;4918550;29;19975;-83
2023/09/30 08:25:06;;;;;;;;;;;;;;;18.39;100.00;100350.94;4916116;29;20682;-78
2023/09/30 08:27:32;;;;;;;;;;;;;;;18.44;100.00;100352.28;4915756;29;20361;-84
2023/09/30 08:29:57;;;;;;;;;;;;;;;18.49;100.00;100345.41;4918951;29;19923;-84
2023/09/30 08:32:23;;;;;;;;;;;;;;;18.57;100.00;100347.22;4906992;29;19927;-74
2023/09/30 08:34:49;;;;;;;;;;;;;;;18.64;100.00;100345.53;4909899;29;19927;-75
2023/09/30 08:37:14;;;;;;;;;;;;;;;18.72;100.00;100346.31;4907296;29;20295;-77
2023/09/30 08:39:40;;;;;;;;;;;;;;;18.81;100.00;100344.41;4911658;29;19927;-77
2023/09/30 08:42:11;;;;;;;;;;;;;;;18.90;100.00;100343.38;4891704;29;19931;-77
2023/09/30 08:44:38;;;;;;;;;;;;;;;18.99;100.00;100347.66;4915469;29;19977;-77
2023/09/30 08:47:04;;;;;;;;;;;;;;;19.07;100.00;100355.63;4915043;29;19923;-77
2023/09/30 08:49:29;;;;;;;;;;;;;;;19.14;100.00;100353.88;4915507;29;19982;-77
2023/09/30 08:51:57;;;;;;;;;;;;;;;19.21;100.00;100352.16;4913959;29;20018;-77
2023/09/30 08:54:23;;;;;;;;;;;;;;;19.26;100.00;100361.50;4912007;29;19923;-77
2023/09/30 08:56:49;;;;;;;;;;;;;;;19.32;100.00;100358.13;4913009;29;19923;-77
2023/09/30 08:59:15;;;;;;;;;;;;;;;19.37;100.00;100355.72;4911272;29;19923;-77
2023/09/30 09:01:40;;;;;;;;;;;;;;;19.42;100.00;100358.69;4906437;29;20817;-75
2023/09/30 09:04:06;;;;;;;;;;;;;;;19.52;100.00;100370.84;4909118;29;19935;-77
2023/09/30 09:06:32;;;;;;;;;;;;;;;19.60;100.00;100367.28;4914233;29;19959;-77
2023/09/30 09:09:16;;;;;;;;;;;;;;;19.62;100.00;100359.88;4911346;29;19970;-77
2023/09/30 09:11:42;;;;;;;;;;;;;;;19.72;100.00;100365.81;4910482;29;20404;-77
2023/09/30 09:14:08;;;;;;;;;;;;;;;19.80;100.00;100368.41;4910805;29;19923;-77
2023/09/30 09:16:34;;;;;;;;;;;;;;;19.91;100.00;100364.47;4914494;29;20092;-76
2023/09/30 09:18:59;;;;;;;;;;;;;;;20.00;100.00;100364.19;4879234;29;19938;-77
2023/09/30 09:21:27;;;;;;;;;;;;;;;20.09;100.00;100362.22;4911436;29;19930;-77
2023/09/30 09:23:53;;;;;;;;;;;;;;;20.16;100.00;100351.59;4913777;29;20006;-77
2023/09/30 09:26:34;;;;;;;;;;;;;;;20.20;100.00;100352.91;4914135;29;19922;-77
2023/09/30 09:29:01;;;;;;;;;;;;;;;20.21;100.00;100354.56;4909736;29;19927;-77
2023/09/30 09:31:28;;;;;;;;;;;;;;;20.27;100.00;100360.00;4909926;29;20300;-77
2023/09/30 09:33:53;;;;;;;;;;;;;;;20.33;100.00;100369.19;4906354;29;20365;-77
2023/09/30 09:36:19;;;;;;;;;;;;;;;20.40;100.00;100359.38;4914237;29;19970;-77
2023/09/30 09:38:45;;;;;;;;;;;;;;;20.46;100.00;100355.13;4912395;29;19962;-77
2023/09/30 09:41:11;;;;;;;;;;;;;;;20.47;100.00;100360.31;4913783;29;19966;-76
2023/09/30 09:43:37;;;;;;;;;;;;;;;20.46;100.00;100353.28;4913224;29;20010;-77
2023/09/30 09:46:07;;;;;;;;;;;;;;;20.49;100.00;100347.56;4914052;29;19927;-76
2023/09/30 09:48:33;;;;;;;;;;;;;;;20.54;100.00;100350.50;4913227;29;19923;-76
2023/09/30 09:50:59;;;;;;;;;;;;;;;20.60;100.00;100348.91;4913377;29;20447;-77
2023/09/30 09:53:25;;;;;;;;;;;;;;;20.66;100.00;100351.69;4910583;29;19935;-77
2023/09/30 09:55:51;;;;;;;;;;;;;;;20.71;100.00;100357.31;4913291;29;19923;-76
2023/09/30 09:58:20;;;;;;;;;;;;;;;20.72;100.00;100358.97;4911648;29;19941;-78
2023/09/30 10:00:46;;;;;;;;;;;;;;;20.73;100.00;100355.28;4909853;29;20396;-76
2023/09/30 10:03:11;;;;;;;;;;;;;;;20.71;100.00;100354.63;4896872;29;19962;-77
2023/09/30 10:05:39;;;;;;;;;;;;;;;20.71;100.00;100357.31;4911092;29;19935;-76
2023/09/30 10:08:11;;;;;;;;;;;;;;;20.73;100.00;100344.56;4894539;29;20175;-78
2023/09/30 10:10:39;;;;;;;;;;;;;;;20.80;100.00;100345.44;4909992;29;20341;-78
2023/09/30 10:13:05;;;;;;;;;;;;;;;20.84;100.00;100344.06;4894563;29;19923;-77
2023/09/30 10:15:35;;;;;;;;;;;;;;;20.91;100.00;100329.88;4896538;29;19970;-77
2023/09/30 10:18:09;;;;;;;;;;;;;;;20.99;100.00;100329.72;4912965;29;19923;-78
2023/09/30 10:20:35;;;;;;;;;;;;;;;21.02;100.00;100322.16;4917055;29;20288;-78
2023/09/30 10:23:20;;;;;;;;;;;;;;;21.07;100.00;100324.25;4896421;29;19934;-77
2023/09/30 10:25:47;;;;;;;;;;;;;;;21.11;100.00;100326.34;4913499;29;19924;-77
2023/09/30 10:28:31;;;;;;;;;;;;;;;21.19;100.00;100328.13;4917529;29;20273;-77
2023/09/30 10:31:08;;;;;;;;;;;;;;;21.26;100.00;100323.66;4908965;29;20290;-76
2023/09/30 10:33:33;;;;;;;;;;;;;;;21.32;100.00;100322.88;4917901;29;19969;-77
2023/09/30 10:36:00;;;;;;;;;;;;;;;21.37;100.00;100315.06;4915234;29;20292;-77
2023/09/30 10:38:28;;;;;;;;;;;;;;;21.41;100.00;100321.69;4912591;29;19978;-77
2023/09/30 10:40:54;;;;;;;;;;;;;;;21.45;100.00;100328.31;4917404;29;20573;-77
2023/09/30 10:43:38;;;;;;;;;;;;;;;21.48;100.00;100317.22;4914005;29;19973;-78
2023/09/30 10:46:26;;;;;;;;;;;;;;;21.56;100.00;100309.00;4915620;29;19966;-77
2023/09/30 10:48:51;;;;;;;;;;;;;;;21.63;100.00;100309.88;4900311;29;19919;-77
2023/09/30 10:51:20;;;;;;;;;;;;;;;21.68;100.00;100306.59;4911408;29;19927;-77
2023/09/30 10:53:47;;;;;;;;;;;;;;;21.74;100.00;100304.97;4896248;29;20315;-77
2023/09/30 10:56:13;;;;;;;;;;;;;;;21.81;100.00;100305.84;4909850;29;19928;-75
2023/09/30 10:58:44;;;;;;;;;;;;;;;21.89;100.00;100308.41;4891058;29;20018;-75
2023/09/30 11:01:11;;;;;;;;;;;;;;;21.96;100.00;100314.69;4907986;29;20058;-75
2023/09/30 11:03:36;;;;;;;;;;;;;;;22.08;100.00;100302.34;4908188;29;20258;-76
2023/09/30 11:06:03;;;;;;;;;;;;;;;22.16;100.00;100299.47;4914035;29;20442;-75
2023/09/30 11:08:29;;;;;;;;;;;;;;;22.23;100.00;100299.50;4908449;29;19923;-77
2023/09/30 11:10:56;;;;;;;;;;;;;;;22.32;100.00;100290.25;4896410;29;20387;-75
2023/09/30 11:13:22;;;;;;;;;;;;;;;22.40;100.00;100290.88;4909418;29;19923;-76
2023/09/30 11:15:47;;;;;;;;;;;;;;;22.52;100.00;100288.44;4911933;29;20428;-78
2023/09/30 11:18:14;;;;;;;;;;;;;;;22.63;100.00;100287.03;4908716;29;20648;-76
2023/09/30 11:20:40;;;;;;;;;;;;;;;22.74;100.00;100286.44;4905475;29;20246;-76
2023/09/30 11:23:06;;;;;;;;;;;;;;;22.90;100.00;100278.03;4913616;29;19927;-79
2023/09/30 11:25:34;;;;;;;;;;;;;;;23.04;100.00;100285.06;4909232;29;20337;-81
2023/09/30 11:28:19;;;;;;;;;;;;;;;23.20;100.00;100281.97;4909445;29;20117;-79
2023/09/30 11:30:58;;;;;;;;;;;;;;;23.37;100.00;100281.56;4913207;29;20310;-78
2023/09/30 11:33:25;;;;;;;;;;;;;;;23.51;100.00;100267.88;4897360;29;19930;-78
2023/09/30 11:36:17;;;;;;;;;;;;;;;23.66;100.00;100270.38;4910869;29;19938;-78
2023/09/30 11:38:47;;;;;;;;;;;;;;;23.77;100.00;100267.00;4890389;29;20033;-78
2023/09/30 11:41:12;;;;;;;;;;;;;;;23.84;100.00;100267.00;4910282;29;20284;-77
2023/09/30 11:43:39;;;;;;;;;;;;;;;23.96;100.00;100262.63;4917271;29;19926;-77
2023/09/30 11:46:04;;;;;;;;;;;;;;;24.08;100.00;100259.03;4913904;29;20366;-77
2023/09/30 11:48:30;;;;;;;;;;;;;;;24.23;100.00;100263.34;4914934;29;20014;-78
2023/09/30 11:51:00;;;;;;;;;;;;;;;24.37;100.00;100259.56;4913749;29;19930;-77
2023/09/30 11:53:25;;;;;;;;;;;;;;;24.53;100.00;100263.63;4916561;29;19923;-79
2023/09/30 11:55:55;;;;;;;;;;;;;;;24.71;100.00;100258.31;4912820;29;19927;-78
2023/09/30 11:58:22;;;;;;;;;;;;;;;24.87;100.00;100253.22;4912795;29;19923;-79
2023/09/30 12:00:50;;;;;;;;;;;;;;;24.95;100.00;100254.03;4915434;29;20384;-78
2023/09/30 12:03:16;;;;;;;;;;;;;;;25.05;100.00;100248.97;4915795;29;19923;-78
2023/09/30 12:05:41;;;;;;;;;;;;;;;25.18;100.00;100248.88;4918027;29;20432;-78
2023/09/30 12:08:07;;;;;;;;;;;;;;;25.35;100.00;100249.13;4915418;29;19933;-78
2023/09/30 12:10:32;;;;;;;;;;;;;;;25.49;100.00;100251.50;4917382;29;19923;-78
2023/09/30 12:12:58;;;;;;;;;;;;;;;25.67;100.00;100251.56;4917993;29;20018;-78
2023/09/30 12:15:23;;;;;;;;;;;;;;;25.81;96.73;100254.09;4917141;29;19924;-78
2023/09/30 12:17:49;;;;;;;;;;;;;;;25.90;95.82;100258.16;4917097;29;19982;-79
2023/09/30 12:20:17;;;;;;;;;;;;;;;26.05;94.95;100255.91;4917774;29;19923;-79
2023/09/30 12:22:43;;;;;;;;;;;;;;;26.18;94.14;100255.75;4914946;29;19934;-80
2023/09/30 12:25:08;;;;;;;;;;;;;;;26.30;93.42;100251.25;4913916;29;19923;-79